createdAt,value
2022-12-08T00:00:24.239Z,0.00
2022-12-08T00:01:24.227Z,0.00
2022-12-08T00:02:24.239Z,0.00
2022-12-08T00:03:24.275Z,0.00
2022-12-08T00:04:24.093Z,0.00
2022-12-08T00:05:24.156Z,0.00
2022-12-08T00:06:24.170Z,0.00
2022-12-08T00:07:24.068Z,0.00
2022-12-08T00:08:24.262Z,0.00
2022-12-08T00:09:24.168Z,0.00
2022-12-08T00:10:48.442Z,0.00
2022-12-08T00:11:24.113Z,0.00
2022-12-08T00:12:23.966Z,0.00
2022-12-08T00:13:24.101Z,0.00
2022-12-08T00:14:23.914Z,0.00
2022-12-08T00:15:24.450Z,0.00
2022-12-08T00:16:23.954Z,0.00
2022-12-08T00:17:24.139Z,0.00
2022-12-08T00:18:23.889Z,0.00
2022-12-08T00:19:23.945Z,0.00
2022-12-08T00:20:23.896Z,0.00
2022-12-08T00:21:23.948Z,0.00
2022-12-08T00:22:23.857Z,0.00
2022-12-08T00:23:23.999Z,0.00
2022-12-08T00:24:23.833Z,0.00
2022-12-08T00:25:23.857Z,0.00
2022-12-08T00:26:23.814Z,0.00
2022-12-08T00:27:23.929Z,0.00
2022-12-08T00:28:23.782Z,0.00
2022-12-08T00:29:23.800Z,0.00
2022-12-08T00:30:23.759Z,0.00
2022-12-08T00:31:23.923Z,0.00
2022-12-08T00:32:23.874Z,0.00
2022-12-08T00:33:23.701Z,0.00
2022-12-08T00:34:23.848Z,0.00
2022-12-08T00:35:23.685Z,0.00
2022-12-08T00:36:23.767Z,0.00
2022-12-08T00:37:23.675Z,0.00
2022-12-08T00:38:23.783Z,0.00
2022-12-08T00:39:23.619Z,0.00
2022-12-08T00:40:23.681Z,0.00
2022-12-08T00:41:23.595Z,0.00
2022-12-08T00:42:23.699Z,0.00
2022-12-08T00:43:23.602Z,0.00
2022-12-08T00:44:23.718Z,0.00
2022-12-08T00:45:23.554Z,0.00
2022-12-08T00:46:23.712Z,0.00
2022-12-08T00:47:24.975Z,0.00
2022-12-08T00:48:23.689Z,0.00
2022-12-08T00:49:23.503Z,0.00
2022-12-08T00:50:23.766Z,0.00
2022-12-08T00:51:23.465Z,0.00
2022-12-08T00:52:23.572Z,0.00
2022-12-08T00:53:23.595Z,0.00
2022-12-08T00:54:23.507Z,0.00
2022-12-08T00:55:23.585Z,0.00
2022-12-08T00:56:23.675Z,0.00
2022-12-08T00:57:23.511Z,0.00
2022-12-08T00:58:23.466Z,0.00
2022-12-08T00:59:23.494Z,0.00
2022-12-08T01:00:34.313Z,0.00
2022-12-08T01:01:23.431Z,0.00
2022-12-08T01:02:23.420Z,0.00
2022-12-08T01:03:23.357Z,0.00
2022-12-08T01:04:23.600Z,0.00
2022-12-08T01:05:23.297Z,0.00
2022-12-08T01:06:23.554Z,0.00
2022-12-08T01:07:23.296Z,0.00
2022-12-08T01:08:23.456Z,0.00
2022-12-08T01:09:23.282Z,0.00
2022-12-08T01:10:23.437Z,0.00
2022-12-08T01:11:23.231Z,0.00
2022-12-08T01:12:23.400Z,0.00
2022-12-08T01:13:23.217Z,0.00
2022-12-08T01:14:23.406Z,0.00
2022-12-08T01:15:23.206Z,0.00
2022-12-08T01:16:23.481Z,0.00
2022-12-08T01:17:23.155Z,0.00
2022-12-08T01:18:23.245Z,0.00
2022-12-08T01:19:23.327Z,0.00
2022-12-08T01:20:23.177Z,0.00
2022-12-08T01:21:23.381Z,0.00
2022-12-08T01:22:23.156Z,0.00
2022-12-08T01:23:23.146Z,0.00
2022-12-08T01:24:23.129Z,0.00
2022-12-08T01:25:23.199Z,0.00
2022-12-08T01:26:23.062Z,0.00
2022-12-08T01:27:23.184Z,0.00
2022-12-08T01:28:23.051Z,0.00
2022-12-08T01:29:23.094Z,0.00
2022-12-08T01:30:23.047Z,0.00
2022-12-08T01:31:23.261Z,0.00
2022-12-08T01:32:23.032Z,0.00
2022-12-08T01:33:23.131Z,0.00
2022-12-08T01:34:22.951Z,0.00
2022-12-08T01:35:23.080Z,0.00
2022-12-08T01:36:22.939Z,0.00
2022-12-08T01:37:23.046Z,0.00
2022-12-08T01:38:22.928Z,0.00
2022-12-08T01:39:22.961Z,0.00
2022-12-08T01:40:22.926Z,0.00
2022-12-08T01:41:22.969Z,0.00
2022-12-08T01:42:22.870Z,0.00
2022-12-08T01:43:23.034Z,0.00
2022-12-08T01:44:22.828Z,0.00
2022-12-08T01:45:22.893Z,0.00
2022-12-08T01:46:22.834Z,0.00
2022-12-08T01:47:22.908Z,0.00
2022-12-08T01:48:22.884Z,0.00
2022-12-08T01:49:22.929Z,0.00
2022-12-08T01:50:22.780Z,0.00
2022-12-08T01:51:22.836Z,0.00
2022-12-08T01:52:22.777Z,0.00
2022-12-08T01:53:22.964Z,0.00
2022-12-08T01:54:22.755Z,0.00
2022-12-08T01:55:22.762Z,0.00
2022-12-08T01:56:22.685Z,0.00
2022-12-08T01:57:22.772Z,0.00
2022-12-08T01:58:22.702Z,0.00
2022-12-08T01:59:22.792Z,0.00
2022-12-08T02:00:22.650Z,0.00
2022-12-08T02:01:22.860Z,0.00
2022-12-08T02:02:22.716Z,0.00
2022-12-08T02:03:22.818Z,0.00
2022-12-08T02:04:22.625Z,0.00
2022-12-08T02:05:22.613Z,0.00
2022-12-08T02:06:22.570Z,0.00
2022-12-08T02:07:22.646Z,0.00
2022-12-08T02:08:22.610Z,0.00
2022-12-08T02:09:22.656Z,0.00
2022-12-08T02:10:22.558Z,0.00
2022-12-08T02:11:22.681Z,0.00
2022-12-08T02:12:22.501Z,0.00
2022-12-08T02:13:22.585Z,0.00
2022-12-08T02:14:22.475Z,0.00
2022-12-08T02:15:22.601Z,0.00
2022-12-08T02:16:22.519Z,0.00
2022-12-08T02:17:22.512Z,0.00
2022-12-08T02:18:22.426Z,0.00
2022-12-08T02:19:30.642Z,0.00
2022-12-08T02:20:22.408Z,0.00
2022-12-08T02:21:22.425Z,0.00
2022-12-08T02:22:22.393Z,0.00
2022-12-08T02:23:22.448Z,0.00
2022-12-08T02:24:22.361Z,0.00
2022-12-08T02:25:22.522Z,0.00
2022-12-08T02:26:22.312Z,0.00
2022-12-08T02:27:22.422Z,0.00
2022-12-08T02:28:22.320Z,0.00
2022-12-08T02:29:22.396Z,0.00
2022-12-08T02:30:22.280Z,0.00
2022-12-08T02:31:22.509Z,0.00
2022-12-08T02:32:22.421Z,0.00
2022-12-08T02:33:22.239Z,0.00
2022-12-08T02:34:22.320Z,0.00
2022-12-08T02:35:22.187Z,0.00
2022-12-08T02:36:22.340Z,0.00
2022-12-08T02:37:22.216Z,0.00
2022-12-08T02:38:22.260Z,0.00
2022-12-08T02:39:22.135Z,0.00
2022-12-08T02:40:22.376Z,0.00
2022-12-08T02:41:22.118Z,0.00
2022-12-08T02:42:22.376Z,0.00
2022-12-08T02:43:22.122Z,0.00
2022-12-08T02:44:22.200Z,0.00
2022-12-08T02:45:22.061Z,0.00
2022-12-08T02:46:22.320Z,0.00
2022-12-08T02:47:22.038Z,0.00
2022-12-08T02:48:22.223Z,0.00
2022-12-08T02:49:22.038Z,0.00
2022-12-08T02:50:22.250Z,0.00
2022-12-08T02:51:21.985Z,0.00
2022-12-08T02:52:22.161Z,0.00
2022-12-08T02:53:22.137Z,0.00
2022-12-08T02:54:21.966Z,0.00
2022-12-08T02:55:22.209Z,0.00
2022-12-08T02:56:21.964Z,0.00
2022-12-08T02:57:22.172Z,0.00
2022-12-08T02:58:21.926Z,0.00
2022-12-08T02:59:21.980Z,0.00
2022-12-08T03:00:21.942Z,0.00
2022-12-08T03:01:22.025Z,0.00
2022-12-08T03:02:21.986Z,0.00
2022-12-08T03:03:22.010Z,0.00
2022-12-08T03:04:21.855Z,0.00
2022-12-08T03:05:21.905Z,0.00
2022-12-08T03:06:21.903Z,0.00
2022-12-08T03:07:21.939Z,0.00
2022-12-08T03:08:21.912Z,0.00
2022-12-08T03:09:21.852Z,0.00
2022-12-08T03:10:21.758Z,0.00
2022-12-08T03:11:21.896Z,0.00
2022-12-08T03:12:21.772Z,0.00
2022-12-08T03:13:21.880Z,0.00
2022-12-08T03:14:21.712Z,0.00
2022-12-08T03:15:21.781Z,0.00
2022-12-08T03:16:21.804Z,0.00
2022-12-08T03:17:21.795Z,0.00
2022-12-08T03:18:21.697Z,0.00
2022-12-08T03:19:21.703Z,0.00
2022-12-08T03:20:21.652Z,0.00
2022-12-08T03:21:21.817Z,0.00
2022-12-08T03:22:21.620Z,0.00
2022-12-08T03:23:21.880Z,0.00
2022-12-08T03:24:21.863Z,0.00
2022-12-08T03:25:21.578Z,0.00
2022-12-08T03:26:21.670Z,0.00
2022-12-08T03:27:21.553Z,0.00
2022-12-08T03:28:21.680Z,0.00
2022-12-08T03:29:21.541Z,0.00
2022-12-08T03:30:21.815Z,0.00
2022-12-08T03:31:21.580Z,0.00
2022-12-08T03:32:21.619Z,0.00
2022-12-08T03:33:21.491Z,0.00
2022-12-08T03:34:21.735Z,0.00
2022-12-08T03:35:21.441Z,0.00
2022-12-08T03:36:21.542Z,0.00
2022-12-08T03:37:21.407Z,0.00
2022-12-08T03:38:21.551Z,0.00
2022-12-08T03:39:21.433Z,0.00
2022-12-08T03:40:21.563Z,0.00
2022-12-08T03:41:21.361Z,0.00
2022-12-08T03:42:21.480Z,0.00
2022-12-08T03:43:21.344Z,0.00
2022-12-08T03:44:21.533Z,0.00
2022-12-08T03:45:21.439Z,0.00
2022-12-08T03:46:56.276Z,0.00
2022-12-08T03:47:57.100Z,0.00
2022-12-08T03:48:57.257Z,0.00
2022-12-08T03:49:57.102Z,0.00
2022-12-08T03:50:57.278Z,0.00
2022-12-08T03:51:57.068Z,0.00
2022-12-08T03:52:57.297Z,0.00
2022-12-08T03:53:57.017Z,0.00
2022-12-08T03:54:57.297Z,0.00
2022-12-08T03:55:57.023Z,0.00
2022-12-08T03:56:57.144Z,0.00
2022-12-08T03:57:56.980Z,0.00
2022-12-08T03:58:57.130Z,0.00
2022-12-08T03:59:56.949Z,0.00
2022-12-08T04:00:57.183Z,0.00
2022-12-08T04:01:56.989Z,0.00
2022-12-08T04:02:57.219Z,0.00
2022-12-08T04:03:56.912Z,0.00
2022-12-08T04:04:57.165Z,0.00
2022-12-08T04:05:56.968Z,0.00
2022-12-08T04:06:56.931Z,0.00
2022-12-08T04:07:57.101Z,0.00
2022-12-08T04:08:56.862Z,0.00
2022-12-08T04:09:57.022Z,0.00
2022-12-08T04:10:56.842Z,0.00
2022-12-08T04:11:57.038Z,0.00
2022-12-08T04:12:56.816Z,0.00
2022-12-08T04:13:56.996Z,0.00
2022-12-08T04:14:56.804Z,0.00
2022-12-08T04:15:56.955Z,0.00
2022-12-08T04:16:56.807Z,0.00
2022-12-08T04:17:56.938Z,0.00
2022-12-08T04:18:56.748Z,0.00
2022-12-08T04:19:56.958Z,0.00
2022-12-08T04:20:56.730Z,0.00
2022-12-08T04:21:56.960Z,0.00
2022-12-08T04:22:56.725Z,0.00
2022-12-08T04:24:01.110Z,0.00
2022-12-08T04:24:56.681Z,0.00
2022-12-08T04:25:56.799Z,0.00
2022-12-08T04:26:56.661Z,0.00
2022-12-08T04:27:56.852Z,0.00
2022-12-08T04:28:56.672Z,0.00
2022-12-08T04:29:56.822Z,0.00
2022-12-08T04:30:56.659Z,0.00
2022-12-08T04:31:56.884Z,0.00
2022-12-08T04:32:56.572Z,0.00
2022-12-08T04:33:56.687Z,0.00
2022-12-08T04:34:56.563Z,0.00
2022-12-08T04:35:56.660Z,0.00
2022-12-08T04:36:56.682Z,0.00
2022-12-08T04:37:56.496Z,0.00
2022-12-08T04:38:56.598Z,0.00
2022-12-08T04:39:56.491Z,0.00
2022-12-08T04:40:56.597Z,0.00
2022-12-08T04:41:56.470Z,0.00
2022-12-08T04:42:56.612Z,0.00
2022-12-08T04:43:56.442Z,0.00
2022-12-08T04:44:56.522Z,0.00
2022-12-08T04:45:56.384Z,0.00
2022-12-08T04:46:56.553Z,0.00
2022-12-08T04:47:56.392Z,0.00
2022-12-08T04:48:56.568Z,0.00
2022-12-08T04:49:56.833Z,0.00
2022-12-08T04:50:56.641Z,0.00
2022-12-08T04:51:56.477Z,0.00
2022-12-08T04:52:56.588Z,0.00
2022-12-08T04:53:56.340Z,0.00
2022-12-08T04:54:56.780Z,0.00
2022-12-08T04:55:56.317Z,0.00
2022-12-08T04:56:56.297Z,0.00
2022-12-08T04:57:56.256Z,0.00
2022-12-08T04:58:56.318Z,0.00
2022-12-08T04:59:56.227Z,0.00
2022-12-08T05:00:56.399Z,0.00
2022-12-08T05:01:56.343Z,0.00
2022-12-08T05:02:56.408Z,0.00
2022-12-08T05:03:56.198Z,0.00
2022-12-08T05:04:56.262Z,0.00
2022-12-08T05:05:56.163Z,0.00
2022-12-08T05:06:56.276Z,0.00
2022-12-08T05:07:56.247Z,0.00
2022-12-08T05:08:56.341Z,0.00
2022-12-08T05:09:56.127Z,0.00
2022-12-08T05:10:56.297Z,0.00
2022-12-08T05:11:56.197Z,0.00
2022-12-08T05:12:56.314Z,0.00
2022-12-08T05:13:56.061Z,0.00
2022-12-08T05:14:56.140Z,0.00
2022-12-08T05:15:56.085Z,0.00
2022-12-08T05:16:56.142Z,0.00
2022-12-08T05:17:56.048Z,0.00
2022-12-08T05:18:56.200Z,0.00
2022-12-08T05:19:55.982Z,0.00
2022-12-08T05:20:56.167Z,0.00
2022-12-08T05:21:55.991Z,0.00
2022-12-08T05:22:56.029Z,0.00
2022-12-08T05:23:55.926Z,0.00
2022-12-08T05:24:56.574Z,0.00
2022-12-08T05:25:56.150Z,0.00
2022-12-08T05:26:56.109Z,0.00
2022-12-08T05:28:17.572Z,0.00
2022-12-08T05:28:55.934Z,0.00
2022-12-08T05:29:55.855Z,0.00
2022-12-08T05:30:55.925Z,0.00
2022-12-08T05:31:55.907Z,0.00
2022-12-08T05:32:56.139Z,4.00
2022-12-08T05:34:01.044Z,4.00
2022-12-08T05:34:56.326Z,4.00
2022-12-08T05:35:56.561Z,4.00
2022-12-08T05:36:56.955Z,4.00
2022-12-08T05:37:56.078Z,4.00
2022-12-08T05:38:55.859Z,4.00
2022-12-08T05:39:57.054Z,4.00
2022-12-08T05:40:56.020Z,4.00
2022-12-08T05:41:56.392Z,4.00
2022-12-08T05:42:56.165Z,4.00
2022-12-08T05:43:56.664Z,4.00
2022-12-08T05:44:56.032Z,0.00
2022-12-08T05:45:56.075Z,4.00
2022-12-08T05:46:55.669Z,4.00
2022-12-08T05:47:55.730Z,4.00
2022-12-08T05:48:55.679Z,4.00
2022-12-08T05:49:55.789Z,4.00
2022-12-08T05:50:55.645Z,4.00
2022-12-08T05:51:55.805Z,4.00
2022-12-08T05:52:55.606Z,4.00
2022-12-08T05:53:55.978Z,4.00
2022-12-08T05:54:55.689Z,4.00
2022-12-08T05:55:55.572Z,4.00
2022-12-08T05:56:55.764Z,4.00
2022-12-08T05:57:55.497Z,4.00
2022-12-08T05:58:55.616Z,4.00
2022-12-08T05:59:55.802Z,4.00
2022-12-08T06:00:55.555Z,4.00
2022-12-08T06:01:55.582Z,4.00
2022-12-08T06:02:55.620Z,4.00
2022-12-08T06:03:55.537Z,4.00
2022-12-08T06:04:55.450Z,4.00
2022-12-08T06:05:55.572Z,4.00
2022-12-08T06:06:55.764Z,4.00
2022-12-08T06:07:55.739Z,4.00
2022-12-08T06:08:55.413Z,4.00
2022-12-08T06:09:55.511Z,4.00
2022-12-08T06:10:55.375Z,4.00
2022-12-08T06:11:55.597Z,4.00
2022-12-08T06:12:55.356Z,4.00
2022-12-08T06:13:55.504Z,4.00
2022-12-08T06:14:55.336Z,4.00
2022-12-08T06:15:55.516Z,4.00
2022-12-08T06:16:55.385Z,4.00
2022-12-08T06:17:55.378Z,4.00
2022-12-08T06:18:55.282Z,4.00
2022-12-08T06:19:55.330Z,4.00
2022-12-08T06:20:55.380Z,4.00
2022-12-08T06:23:06.220Z,4.00
2022-12-08T06:24:06.824Z,4.00
2022-12-08T06:25:09.847Z,4.00
2022-12-08T06:26:06.810Z,4.00
2022-12-08T06:27:06.576Z,4.00
2022-12-08T06:28:06.835Z,4.00
2022-12-08T06:29:06.546Z,4.00
2022-12-08T06:30:07.042Z,4.00
2022-12-08T06:31:06.553Z,4.00
2022-12-08T06:32:06.660Z,4.00
2022-12-08T06:33:07.254Z,4.00
2022-12-08T06:34:06.607Z,4.00
2022-12-08T06:35:06.699Z,8.00
2022-12-08T06:36:06.516Z,4.00
2022-12-08T06:37:06.528Z,8.00
2022-12-08T06:38:06.510Z,8.00
2022-12-08T06:39:07.600Z,8.00
2022-12-08T06:40:06.618Z,8.00
2022-12-08T06:41:06.557Z,12.00
2022-12-08T06:42:06.463Z,12.00
2022-12-08T06:43:06.707Z,12.00
2022-12-08T06:44:06.494Z,16.00
2022-12-08T06:45:06.604Z,16.00
2022-12-08T06:46:06.485Z,20.00
2022-12-08T06:47:06.417Z,24.00
2022-12-08T06:48:06.332Z,24.00
2022-12-08T06:49:06.458Z,28.00
2022-12-08T06:50:07.310Z,32.00
2022-12-08T06:51:06.953Z,32.00
2022-12-08T06:52:06.434Z,40.00
2022-12-08T06:53:06.254Z,44.00
2022-12-08T06:54:06.404Z,48.00
2022-12-08T06:55:06.229Z,56.00
2022-12-08T06:56:06.513Z,64.00
2022-12-08T06:57:06.197Z,68.00
2022-12-08T06:58:06.343Z,72.00
2022-12-08T06:59:06.392Z,84.00
2022-12-08T07:00:06.672Z,92.00
2022-12-08T07:01:06.252Z,100.00
2022-12-08T07:02:06.553Z,104.00
2022-12-08T07:03:06.177Z,116.00
2022-12-08T07:04:06.302Z,124.00
2022-12-08T07:05:06.105Z,136.00
2022-12-08T07:06:06.260Z,144.00
2022-12-08T07:07:06.089Z,156.00
2022-12-08T07:08:06.315Z,168.00
2022-12-08T07:09:06.056Z,172.00
2022-12-08T07:10:06.581Z,188.00
2022-12-08T07:11:06.031Z,196.00
2022-12-08T07:12:06.167Z,208.00
2022-12-08T07:13:06.037Z,220.00
2022-12-08T07:14:06.101Z,236.00
2022-12-08T07:15:06.020Z,244.00
2022-12-08T07:16:06.105Z,260.00
2022-12-08T07:17:06.221Z,272.00
2022-12-08T07:18:06.243Z,284.00
2022-12-08T07:19:05.930Z,296.00
2022-12-08T07:20:06.623Z,312.00
2022-12-08T07:21:05.919Z,324.00
2022-12-08T07:22:06.071Z,332.00
2022-12-08T07:23:05.925Z,348.00
2022-12-08T07:24:05.960Z,360.00
2022-12-08T07:25:06.004Z,372.00
2022-12-08T07:26:06.367Z,388.00
2022-12-08T07:27:05.872Z,400.00
2022-12-08T07:28:05.972Z,412.00
2022-12-08T07:29:05.848Z,428.00
2022-12-08T07:30:06.228Z,444.00
2022-12-08T07:31:06.143Z,460.00
2022-12-08T07:32:05.896Z,476.00
2022-12-08T07:33:06.037Z,492.00
2022-12-08T07:34:06.422Z,508.00
2022-12-08T07:35:05.766Z,520.00
2022-12-08T07:36:05.835Z,532.00
2022-12-08T07:37:05.744Z,540.00
2022-12-08T07:38:05.843Z,552.00
2022-12-08T07:39:05.843Z,572.00
2022-12-08T07:40:06.057Z,584.00
2022-12-08T07:41:05.847Z,600.00
2022-12-08T07:42:05.746Z,620.00
2022-12-08T07:43:05.845Z,632.00
2022-12-08T07:44:05.734Z,648.00
2022-12-08T07:45:13.418Z,664.00
2022-12-08T07:46:05.805Z,680.00
2022-12-08T07:47:05.845Z,696.00
2022-12-08T07:48:05.730Z,724.00
2022-12-08T07:49:05.845Z,748.00
2022-12-08T07:50:05.916Z,768.00
2022-12-08T07:51:05.831Z,788.00
2022-12-08T07:52:06.158Z,796.00
2022-12-08T07:53:05.982Z,812.00
2022-12-08T07:54:05.905Z,840.00
2022-12-08T07:55:05.817Z,868.00
2022-12-08T07:56:05.593Z,884.00
2022-12-08T07:57:06.796Z,908.00
2022-12-08T07:58:05.552Z,932.00
2022-12-08T07:59:06.373Z,956.00
2022-12-08T08:00:05.980Z,1004.00
2022-12-08T08:01:06.264Z,1036.00
2022-12-08T08:02:23.462Z,1068.00
2022-12-08T08:03:06.437Z,1100.00
2022-12-08T08:04:05.642Z,1136.00
2022-12-08T08:05:06.472Z,1164.00
2022-12-08T08:06:05.724Z,1184.00
2022-12-08T08:07:05.731Z,1212.00
2022-12-08T08:08:05.705Z,1228.00
2022-12-08T08:09:06.184Z,1236.00
2022-12-08T08:10:06.571Z,1284.00
2022-12-08T08:11:15.802Z,1308.00
2022-12-08T08:12:30.163Z,1328.00
2022-12-08T08:13:05.716Z,1344.00
2022-12-08T08:14:05.562Z,1344.00
2022-12-08T08:15:07.257Z,1360.00
2022-12-08T08:16:06.203Z,1376.00
2022-12-08T08:17:06.095Z,1388.00
2022-12-08T08:18:05.878Z,1436.00
2022-12-08T08:19:05.955Z,1464.00
2022-12-08T08:20:06.206Z,1484.00
2022-12-08T08:21:22.155Z,1500.00
2022-12-08T08:22:06.103Z,1508.00
2022-12-08T08:23:05.715Z,1488.00
2022-12-08T08:24:06.409Z,1560.00
2022-12-08T08:25:05.387Z,1604.00
2022-12-08T08:26:05.425Z,1640.00
2022-12-08T08:27:06.183Z,1668.00
2022-12-08T08:28:05.538Z,1696.00
2022-12-08T08:29:05.429Z,1740.00
2022-12-08T08:30:06.621Z,1768.00
2022-12-08T08:31:06.137Z,1792.00
2022-12-08T08:32:06.183Z,1832.00
2022-12-08T08:33:05.934Z,1888.00
2022-12-08T08:34:05.291Z,1960.00
2022-12-08T08:35:05.344Z,2012.00
2022-12-08T08:36:05.381Z,2060.00
2022-12-08T08:37:06.086Z,2108.00
2022-12-08T08:38:05.289Z,2156.00
2022-12-08T08:39:05.280Z,2204.00
2022-12-08T08:40:06.003Z,2228.00
2022-12-08T08:41:05.225Z,2260.00
2022-12-08T08:42:05.002Z,2296.00
2022-12-08T08:43:05.096Z,2328.00
2022-12-08T08:44:05.036Z,2360.00
2022-12-08T08:45:05.095Z,2392.00
2022-12-08T08:46:05.289Z,2428.00
2022-12-08T08:47:05.011Z,2464.00
2022-12-08T08:48:04.908Z,2500.00
2022-12-08T08:49:05.026Z,2548.00
2022-12-08T08:50:05.296Z,2596.00
2022-12-08T08:51:05.024Z,2640.00
2022-12-08T08:52:05.475Z,2680.00
2022-12-08T08:53:05.826Z,2708.00
2022-12-08T08:54:05.039Z,2740.00
2022-12-08T08:55:04.968Z,2780.00
2022-12-08T08:56:04.914Z,2812.00
2022-12-08T08:57:04.992Z,2832.00
2022-12-08T08:58:04.760Z,2856.00
2022-12-08T08:59:05.098Z,2908.00
2022-12-08T09:00:05.114Z,2872.00
2022-12-08T09:01:05.049Z,2756.00
2022-12-08T09:02:04.894Z,2708.00
2022-12-08T09:03:05.728Z,2684.00
2022-12-08T09:04:04.999Z,2652.00
2022-12-08T09:05:04.714Z,2632.00
2022-12-08T09:06:04.886Z,2656.00
2022-12-08T09:07:04.851Z,2716.00
2022-12-08T09:08:04.844Z,2788.00
2022-12-08T09:09:04.747Z,2840.00
2022-12-08T09:10:04.896Z,2864.00
2022-12-08T09:11:04.777Z,2908.00
2022-12-08T09:12:04.560Z,2960.00
2022-12-08T09:13:05.424Z,3024.00
2022-12-08T09:14:05.172Z,3116.00
2022-12-08T09:15:04.878Z,3224.00
2022-12-08T09:16:04.900Z,3764.00
2022-12-08T09:17:04.808Z,6568.00
2022-12-08T09:18:05.356Z,7664.00
2022-12-08T09:19:04.775Z,8620.00
2022-12-08T09:20:05.028Z,10412.00
2022-12-08T09:21:04.758Z,11272.00
2022-12-08T09:22:04.485Z,11120.00
2022-12-08T09:23:04.846Z,6592.00
2022-12-08T09:24:04.840Z,5012.00
2022-12-08T09:25:05.007Z,5844.00
2022-12-08T09:26:04.618Z,6616.00
2022-12-08T09:27:04.808Z,8312.00
2022-12-08T09:28:05.089Z,27360.00
2022-12-08T09:29:04.609Z,28384.00
2022-12-08T09:30:04.954Z,23552.00
2022-12-08T09:31:04.779Z,33088.00
2022-12-08T09:32:04.593Z,28800.00
2022-12-08T09:33:04.338Z,17248.00
2022-12-08T09:34:04.582Z,14048.00
2022-12-08T09:35:04.281Z,24608.00
2022-12-08T09:36:36.197Z,38016.00
2022-12-08T09:37:04.438Z,43264.00
2022-12-08T09:38:04.521Z,52192.00
2022-12-08T09:39:04.754Z,52352.00
2022-12-08T09:40:04.926Z,53248.00
2022-12-08T09:41:04.260Z,56576.00
2022-12-08T09:42:04.403Z,62336.00
2022-12-08T09:43:04.217Z,67328.00
2022-12-08T09:44:04.370Z,67968.00
2022-12-08T09:45:04.177Z,68256.00
2022-12-08T09:46:04.579Z,69664.00
2022-12-08T09:47:04.244Z,71200.00
2022-12-08T09:48:04.422Z,73472.00
2022-12-08T09:49:04.315Z,75712.00
2022-12-08T09:50:04.730Z,72736.00
2022-12-08T09:51:04.369Z,75232.00
2022-12-08T09:52:04.067Z,75456.00
2022-12-08T09:53:04.294Z,67776.00
2022-12-08T09:54:04.315Z,69664.00
2022-12-08T09:55:04.258Z,80384.00
2022-12-08T09:56:04.012Z,79840.00
2022-12-08T09:57:04.279Z,82272.00
2022-12-08T09:58:04.083Z,81792.00
2022-12-08T09:59:04.328Z,80608.00
2022-12-08T10:00:04.226Z,84640.00
2022-12-08T10:01:04.108Z,87360.00
2022-12-08T10:02:04.074Z,82848.00
2022-12-08T10:03:04.146Z,76288.00
2022-12-08T10:04:04.231Z,75520.00
2022-12-08T10:05:04.327Z,70688.00
2022-12-08T10:06:04.030Z,76736.00
2022-12-08T10:07:05.587Z,74816.00
2022-12-08T10:08:04.518Z,78368.00
2022-12-08T10:09:04.182Z,85344.00
2022-12-08T10:10:04.361Z,80736.00
2022-12-08T10:11:04.282Z,74400.00
2022-12-08T10:12:04.077Z,80128.00
2022-12-08T10:13:04.188Z,81824.00
2022-12-08T10:14:03.884Z,71840.00
2022-12-08T10:15:03.952Z,77984.00
2022-12-08T10:16:03.867Z,83808.00
2022-12-08T10:17:04.120Z,84640.00
2022-12-08T10:18:03.784Z,80096.00
2022-12-08T10:19:04.102Z,77728.00
2022-12-08T10:20:04.201Z,67040.00
2022-12-08T10:21:04.104Z,75136.00
2022-12-08T10:22:04.196Z,51712.00
2022-12-08T10:23:03.760Z,49856.00
2022-12-08T10:24:03.679Z,24192.00
2022-12-08T10:25:04.291Z,37600.00
2022-12-08T10:26:03.840Z,45664.00
2022-12-08T10:27:04.138Z,36480.00
2022-12-08T10:28:04.166Z,45216.00
2022-12-08T10:29:05.779Z,50432.00
2022-12-08T10:30:04.193Z,42720.00
2022-12-08T10:31:05.023Z,58624.00
2022-12-08T10:32:04.948Z,64064.00
2022-12-08T10:33:03.982Z,69440.00
2022-12-08T10:34:04.061Z,72736.00
2022-12-08T10:35:04.935Z,80384.00
2022-12-08T10:36:04.366Z,66336.00
2022-12-08T10:37:03.716Z,53856.00
2022-12-08T10:38:03.920Z,28672.00
2022-12-08T10:39:03.710Z,31744.00
2022-12-08T10:40:04.703Z,26144.00
2022-12-08T10:41:04.284Z,13784.00
2022-12-08T10:42:04.490Z,11464.00
2022-12-08T10:43:07.845Z,21856.00
2022-12-08T10:44:04.245Z,32320.00
2022-12-08T10:45:04.510Z,21792.00
2022-12-08T10:46:04.705Z,61728.00
2022-12-08T10:47:04.202Z,70368.00
2022-12-08T10:48:04.243Z,46208.00
2022-12-08T10:49:03.906Z,42176.00
2022-12-08T10:50:03.782Z,61920.00
2022-12-08T10:51:03.616Z,66368.00
2022-12-08T10:52:03.403Z,63968.00
2022-12-08T10:53:03.596Z,56608.00
2022-12-08T10:54:03.353Z,35552.00
2022-12-08T10:55:03.424Z,34560.00
2022-12-08T10:56:03.414Z,37184.00
2022-12-08T10:57:03.835Z,50176.00
2022-12-08T10:58:03.259Z,44832.00
2022-12-08T10:59:03.495Z,44288.00
2022-12-08T11:00:04.647Z,28416.00
2022-12-08T11:01:03.457Z,18656.00
2022-12-08T11:02:03.384Z,26144.00
2022-12-08T11:03:03.357Z,40096.00
2022-12-08T11:04:03.299Z,35776.00
2022-12-08T11:05:04.680Z,20000.00
2022-12-08T11:06:10.595Z,16704.00
2022-12-08T11:07:03.398Z,14788.00
2022-12-08T11:08:03.225Z,15160.00
2022-12-08T11:09:03.330Z,17440.00
2022-12-08T11:10:03.691Z,19008.00
2022-12-08T11:11:03.166Z,15456.00
2022-12-08T11:12:03.049Z,21344.00
2022-12-08T11:13:03.239Z,21344.00
2022-12-08T11:14:03.025Z,28448.00
2022-12-08T11:15:10.059Z,27328.00
2022-12-08T11:16:03.134Z,24832.00
2022-12-08T11:17:03.432Z,23296.00
2022-12-08T11:18:03.010Z,33440.00
2022-12-08T11:19:03.117Z,30176.00
2022-12-08T11:20:03.624Z,24800.00
2022-12-08T11:21:03.141Z,19648.00
2022-12-08T11:22:02.982Z,20128.00
2022-12-08T11:23:03.668Z,24384.00
2022-12-08T11:24:02.857Z,55808.00
2022-12-08T11:25:03.072Z,73088.00
2022-12-08T11:26:02.886Z,66368.00
2022-12-08T11:27:03.063Z,65920.00
2022-12-08T11:28:03.115Z,58688.00
2022-12-08T11:29:02.906Z,84992.00
2022-12-08T11:30:03.651Z,72576.00
2022-12-08T11:31:02.900Z,29664.00
2022-12-08T11:32:03.385Z,15776.00
2022-12-08T11:33:03.219Z,14368.00
2022-12-08T11:34:03.184Z,13728.00
2022-12-08T11:35:03.432Z,12892.00
2022-12-08T11:36:02.787Z,12072.00
2022-12-08T11:37:02.747Z,11716.00
2022-12-08T11:38:19.845Z,11504.00
2022-12-08T11:39:02.919Z,11512.00
2022-12-08T11:40:02.974Z,12028.00
2022-12-08T11:41:02.838Z,12256.00
2022-12-08T11:42:02.654Z,11920.00
2022-12-08T11:43:02.880Z,10788.00
2022-12-08T11:44:02.837Z,10648.00
2022-12-08T11:45:02.958Z,12124.00
2022-12-08T11:46:02.716Z,12832.00
2022-12-08T11:47:02.649Z,13244.00
2022-12-08T11:48:02.684Z,12600.00
2022-12-08T11:49:06.286Z,11832.00
2022-12-08T11:50:03.093Z,12144.00
2022-12-08T11:51:02.568Z,13124.00
2022-12-08T11:52:02.758Z,39712.00
2022-12-08T11:53:02.586Z,68416.00
2022-12-08T11:54:03.750Z,70944.00
2022-12-08T11:55:02.781Z,64288.00
2022-12-08T11:56:02.634Z,15936.00
2022-12-08T11:57:02.554Z,24160.00
2022-12-08T11:58:02.629Z,21568.00
2022-12-08T11:59:02.468Z,12708.00
2022-12-08T12:00:02.847Z,6300.00
2022-12-08T12:01:02.462Z,4824.00
2022-12-08T12:02:02.888Z,4596.00
2022-12-08T12:03:02.640Z,4084.00
2022-12-08T12:04:02.584Z,3532.00
2022-12-08T12:05:02.455Z,3380.00
2022-12-08T12:06:18.260Z,3072.00
2022-12-08T12:07:02.569Z,2812.00
2022-12-08T12:08:03.148Z,2564.00
2022-12-08T12:09:02.607Z,2452.00
2022-12-08T12:10:02.692Z,2172.00
2022-12-08T12:11:02.526Z,1924.00
2022-12-08T12:12:02.301Z,1768.00
2022-12-08T12:13:02.585Z,1700.00
2022-12-08T12:14:02.293Z,1688.00
2022-12-08T12:15:02.513Z,1632.00
2022-12-08T12:16:02.547Z,1556.00
2022-12-08T12:17:02.419Z,1664.00
2022-12-08T12:18:02.404Z,1944.00
2022-12-08T12:19:02.231Z,2852.00
2022-12-08T12:20:02.816Z,2796.00
2022-12-08T12:21:02.159Z,2488.00
2022-12-08T12:22:02.463Z,2332.00
2022-12-08T12:23:02.174Z,2456.00
2022-12-08T12:24:02.419Z,2516.00
2022-12-08T12:25:02.142Z,2532.00
2022-12-08T12:26:02.458Z,2308.00
2022-12-08T12:27:02.221Z,2004.00
2022-12-08T12:28:02.417Z,1780.00
2022-12-08T12:29:02.086Z,1584.00
2022-12-08T12:30:02.199Z,1360.00
2022-12-08T12:31:02.121Z,1180.00
2022-12-08T12:32:02.200Z,1056.00
2022-12-08T12:33:02.104Z,1020.00
2022-12-08T12:34:02.206Z,980.00
2022-12-08T12:35:02.015Z,940.00
2022-12-08T12:36:02.208Z,920.00
2022-12-08T12:37:02.082Z,900.00
2022-12-08T12:38:02.031Z,916.00
2022-12-08T12:39:02.124Z,892.00
2022-12-08T12:40:02.159Z,804.00
2022-12-08T12:41:02.031Z,756.00
2022-12-08T12:42:02.010Z,760.00